Dunmore, WV (24934)

5:43 PM EST on February 07, 2016 (GMT -0500)
Green Bank Observatory, near 140ft telescope | | Change Station
CLOSE
Current Station
Personal Weather Station
Location: Green Bank, WV
Elevation: 2688 ft
Nearby Weather Stations

Elev 2688 ft 38.44 °N, 79.83 °W | Updated 3 minutes ago

Clear
Clear
36.9 °F
Feels Like 33 °F
N
4.6
Wind Variable Wind from NNW
Gusts 8.0 mph

Today
High -- | Low -- °F
--% Chance of Precip.
Yesterday
High -- | Low -- °F
Precip. -- in
Pressure 29.86 in
Visibility 10.0 miles
Clouds Clear
Windchill 33 °F
Dew Point 22 °F
Humidity 55%
Rainfall 0.00 in
Snow Depth Not available.
7:19 AM 5:48 PM
Waning Crescent, 1% visible
METAR KHSP 072235Z AUTO 00000KT 10SM CLR 03/M06 A2986 RMK AO2 T00301060
Pressure 29.86 in
Visibility 10.0 miles
Clouds Clear
Windchill 33 °F
Dew Point 22 °F
Humidity 55%
Rainfall 0.00 in
Snow Depth Not available.
7:19 AM 5:48 PM
Waning Crescent, 1% visible
METAR KHSP 072235Z AUTO 00000KT 10SM CLR 03/M06 A2986 RMK AO2 T00301060

10-Day Weather Forecast

Almanac

Astronomy

Feb. 07, 2016 Rise Set
Actual Time
Civil Twilight
Nautical Twilight
Astronomical Twilight
Moon
Length of Visible Light
Length of Day
Tomorrow will be .
, % of the Moon is Illuminated

Today's Extremes

State Highs State Lows

Community

WunderPhotos

Upload Photos

1,891,323 photos uploaded!

WunderBlog® & News

Nearby

Air Quality

  Air Quality AQ Index Pollutant
Not available.

Snow Depth

Station Depth Elevation

Earthquake Activity

City Distance Mag. Time & Date
Minimum magnitude displayed is 2.5.

Coastal Water Temperatures

Place Temperature

Stations

Nearby Weather Stations

Station Location Temp. Windchill Dew Point Humidity Wind Precip. Elev Updated Type
                   

Watches & Warnings

There are currently no watches in effect.